CES5213 ZYTX-ZSPD
Flight info
| Callsign | CES5213 |
|---|---|
| Flight time | N/A |
| Altitude | 30100 |
| Route | TOS72D TOSID A588 CHI W107 SANKO/K0924S0950 A326 IKADI/K0935S0920 W113 SOSMA/K0932S0950 W108 MATNU MAT82A/16L |
| Aircraft | B77W/H-SDE1E2E3FGHIJ2J3J4J5M1RWXY/LB1D1 |
Departure
| Time | N/A |
|---|---|
| Airport | Shenyang Taoxian International Airport (ZYTX) |
Arrival
| Time | 2026-04-30 13:01 |
|---|---|
| Airport | Shanghai Pudong International Airport (ZSPD) |
| Time | Latitude | Longitude | Altitude | Speed | Heading |
|---|---|---|---|---|---|
| 2026-04-30 12:42 | 31.31385 | 122.50969 | 17874 ft | 349 kts | 258° |
| 2026-04-30 12:42 | 31.30728 | 122.48228 | 17882 ft | 347 kts | 261° |
| 2026-04-30 12:42 | 31.30321 | 122.45480 | 17874 ft | 343 kts | 269° |
| 2026-04-30 12:42 | 31.30308 | 122.41774 | 17875 ft | 342 kts | 273° |
| 2026-04-30 12:43 | 31.30334 | 122.39946 | 17875 ft | 341 kts | 274° |
| 2026-04-30 12:43 | 31.30369 | 122.37185 | 17869 ft | 341 kts | 274° |
| 2026-04-30 12:43 | 31.30406 | 122.34399 | 17416 ft | 342 kts | 273° |
| 2026-04-30 12:43 | 31.30434 | 122.31648 | 16704 ft | 339 kts | 273° |
| 2026-04-30 12:44 | 31.30458 | 122.28944 | 16089 ft | 333 kts | 273° |
| 2026-04-30 12:44 | 31.30478 | 122.26273 | 15906 ft | 317 kts | 273° |
| 2026-04-30 12:44 | 31.30485 | 122.23789 | 15897 ft | 298 kts | 273° |
| 2026-04-30 12:44 | 31.30281 | 122.21411 | 15883 ft | 297 kts | 259° |
| 2026-04-30 12:45 | 31.29591 | 122.19148 | 15716 ft | 299 kts | 255° |
| 2026-04-30 12:45 | 31.28821 | 122.16892 | 15199 ft | 300 kts | 254° |
| 2026-04-30 12:45 | 31.28055 | 122.14650 | 14672 ft | 300 kts | 254° |
| 2026-04-30 12:45 | 31.27289 | 122.12385 | 14133 ft | 299 kts | 254° |
| 2026-04-30 12:46 | 31.26532 | 122.10125 | 13595 ft | 299 kts | 254° |
| 2026-04-30 12:46 | 31.25782 | 122.07885 | 13065 ft | 299 kts | 254° |
| 2026-04-30 12:46 | 31.25023 | 122.05617 | 12522 ft | 299 kts | 254° |
| 2026-04-30 12:46 | 31.24271 | 122.03368 | 11968 ft | 291 kts | 254° |
| 2026-04-30 12:47 | 31.23560 | 122.01228 | 11914 ft | 285 kts | 255° |
| 2026-04-30 12:47 | 31.22838 | 121.99088 | 11899 ft | 283 kts | 254° |
| 2026-04-30 12:47 | 31.22109 | 121.96928 | 11904 ft | 282 kts | 254° |
| 2026-04-30 12:47 | 31.21399 | 121.94810 | 11684 ft | 285 kts | 254° |
| 2026-04-30 12:48 | 31.20681 | 121.92679 | 11149 ft | 280 kts | 254° |
| 2026-04-30 12:48 | 31.19972 | 121.90582 | 10663 ft | 271 kts | 254° |
| 2026-04-30 12:48 | 31.19293 | 121.88554 | 10183 ft | 270 kts | 254° |
| 2026-04-30 12:48 | 31.18613 | 121.86510 | 9692 ft | 269 kts | 254° |
| 2026-04-30 12:49 | 31.17945 | 121.84488 | 9202 ft | 268 kts | 255° |
| 2026-04-30 12:49 | 31.17273 | 121.82488 | 8714 ft | 268 kts | 254° |
| 2026-04-30 12:49 | 31.16565 | 121.80466 | 8220 ft | 269 kts | 253° |
| 2026-04-30 12:49 | 31.15875 | 121.78484 | 7879 ft | 259 kts | 253° |
| 2026-04-30 12:50 | 31.15208 | 121.76562 | 7434 ft | 253 kts | 254° |
| 2026-04-30 12:50 | 31.14550 | 121.74680 | 6974 ft | 249 kts | 253° |
| 2026-04-30 12:50 | 31.13907 | 121.72817 | 6513 ft | 245 kts | 256° |
| 2026-04-30 12:50 | 31.13718 | 121.70937 | 6040 ft | 233 kts | 285° |
| 2026-04-30 12:51 | 31.14399 | 121.69344 | 5877 ft | 212 kts | 318° |
| 2026-04-30 12:51 | 31.15669 | 121.68516 | 5912 ft | 208 kts | 341° |
| 2026-04-30 12:51 | 31.17053 | 121.68054 | 5897 ft | 206 kts | 343° |
| 2026-04-30 12:51 | 31.18464 | 121.67613 | 5633 ft | 212 kts | 343° |
| 2026-04-30 12:52 | 31.19911 | 121.67162 | 5261 ft | 217 kts | 343° |
| 2026-04-30 12:52 | 31.21388 | 121.66697 | 4942 ft | 220 kts | 343° |
| 2026-04-30 12:52 | 31.22824 | 121.66242 | 4894 ft | 211 kts | 343° |
| 2026-04-30 12:52 | 31.24244 | 121.65792 | 4760 ft | 210 kts | 343° |
| 2026-04-30 12:53 | 31.25643 | 121.65354 | 4502 ft | 207 kts | 343° |
| 2026-04-30 12:53 | 31.27331 | 121.64825 | 4219 ft | 207 kts | 343° |
| 2026-04-30 12:53 | 31.28733 | 121.64381 | 3980 ft | 207 kts | 343° |
| 2026-04-30 12:53 | 31.30074 | 121.63954 | 3884 ft | 192 kts | 343° |
| 2026-04-30 12:54 | 31.31355 | 121.63547 | 3674 ft | 186 kts | 343° |
| 2026-04-30 12:54 | 31.32589 | 121.63155 | 3434 ft | 183 kts | 343° |
| 2026-04-30 12:54 | 31.33831 | 121.62871 | 3182 ft | 181 kts | 0° |
| 2026-04-30 12:54 | 31.34973 | 121.63409 | 2997 ft | 181 kts | 39° |
| 2026-04-30 12:55 | 31.35561 | 121.64739 | 2974 ft | 189 kts | 71° |
| 2026-04-30 12:55 | 31.35851 | 121.66243 | 2999 ft | 190 kts | 73° |
| 2026-04-30 12:55 | 31.36047 | 121.67763 | 3001 ft | 194 kts | 90° |
| 2026-04-30 12:55 | 31.35514 | 121.69192 | 2982 ft | 196 kts | 128° |
| 2026-04-30 12:56 | 31.34550 | 121.70358 | 2992 ft | 201 kts | 131° |
| 2026-04-30 12:56 | 31.33497 | 121.71410 | 2994 ft | 201 kts | 148° |
| 2026-04-30 12:56 | 31.32225 | 121.72073 | 2983 ft | 199 kts | 161° |
| 2026-04-30 12:56 | 31.30911 | 121.72575 | 2984 ft | 200 kts | 164° |
| 2026-04-30 12:57 | 31.29572 | 121.73058 | 2911 ft | 202 kts | 164° |
| 2026-04-30 12:57 | 31.28256 | 121.73542 | 2648 ft | 183 kts | 163° |
| 2026-04-30 12:57 | 31.27120 | 121.73962 | 2430 ft | 162 kts | 164° |
| 2026-04-30 12:57 | 31.26088 | 121.74348 | 2231 ft | 153 kts | 163° |
| 2026-04-30 12:58 | 31.25083 | 121.74727 | 2035 ft | 147 kts | 163° |
| 2026-04-30 12:58 | 31.24106 | 121.75094 | 1841 ft | 146 kts | 163° |
| 2026-04-30 12:58 | 31.23158 | 121.75452 | 1645 ft | 143 kts | 163° |
| 2026-04-30 12:58 | 31.22210 | 121.75809 | 1448 ft | 143 kts | 163° |
| 2026-04-30 12:59 | 31.21261 | 121.76166 | 1253 ft | 141 kts | 162° |
| 2026-04-30 12:59 | 31.20332 | 121.76515 | 1061 ft | 139 kts | 163° |
| 2026-04-30 12:59 | 31.19407 | 121.76852 | 857 ft | 138 kts | 163° |
| 2026-04-30 12:59 | 31.18509 | 121.77204 | 665 ft | 135 kts | 163° |
| 2026-04-30 13:00 | 31.17615 | 121.77513 | 487 ft | 134 kts | 162° |
| 2026-04-30 13:00 | 31.16742 | 121.77866 | 344 ft | 133 kts | 162° |
| 2026-04-30 13:00 | 31.15862 | 121.78188 | 166 ft | 132 kts | 162° |
| 2026-04-30 13:00 | 31.15000 | 121.78507 | 33 ft | 121 kts | 162° |
| 2026-04-30 13:01 | 31.14348 | 121.78760 | 28 ft | 73 kts | 162° |
| 2026-04-30 13:01 | 31.14031 | 121.78882 | 28 ft | 30 kts | 158° |
| 2026-04-30 13:01 | 31.13866 | 121.79009 | 28 ft | 28 kts | 137° |
| 2026-04-30 13:01 | 31.13783 | 121.79105 | 28 ft | 11 kts | 134° |
| 2026-04-30 13:02 | 31.13717 | 121.79182 | 28 ft | 19 kts | 140° |
| 2026-04-30 13:02 | 31.13652 | 121.79232 | 28 ft | 8 kts | 153° |
| 2026-04-30 13:02 | 31.13593 | 121.79260 | 28 ft | 10 kts | 162° |
| 2026-04-30 13:02 | 31.13625 | 121.79251 | 28 ft | 0 kts | 163° |
| 2026-04-30 13:03 | 31.13613 | 121.79268 | 28 ft | 4 kts | 114° |
| 2026-04-30 13:03 | 31.13611 | 121.79343 | 28 ft | 12 kts | 75° |
| 2026-04-30 13:03 | 31.13642 | 121.79463 | 28 ft | 18 kts | 72° |
| 2026-04-30 13:03 | 31.13677 | 121.79588 | 28 ft | 9 kts | 71° |
| 2026-04-30 13:04 | 31.13691 | 121.79633 | 28 ft | 2 kts | 71° |
| 2026-04-30 13:04 | 31.13694 | 121.79645 | 28 ft | 0 kts | 71° |
| 2026-04-30 13:04 | 31.13698 | 121.79658 | 28 ft | 3 kts | 71° |
| 2026-04-30 13:04 | 31.13704 | 121.79680 | 28 ft | 1 kts | 72° |
| 2026-04-30 13:05 | 31.13715 | 121.79720 | 28 ft | 5 kts | 72° |
| 2026-04-30 13:05 | 31.13726 | 121.79786 | 28 ft | 18 kts | 99° |
| 2026-04-30 13:05 | 31.13590 | 121.79887 | 28 ft | 25 kts | 161° |
| 2026-04-30 13:06 | 31.13252 | 121.80015 | 28 ft | 25 kts | 162° |
| 2026-04-30 13:06 | 31.13084 | 121.80077 | 28 ft | 21 kts | 162° |
| 2026-04-30 13:06 | 31.12965 | 121.80122 | 28 ft | 14 kts | 162° |
| 2026-04-30 13:06 | 31.12949 | 121.80128 | 28 ft | 1 kts | 162° |
| 2026-04-30 13:07 | 31.12929 | 121.80135 | 28 ft | 4 kts | 162° |
| 2026-04-30 13:07 | 31.12870 | 121.80157 | 28 ft | 13 kts | 162° |
| 2026-04-30 13:07 | 31.12811 | 121.80272 | 28 ft | 26 kts | 78° |
| 2026-04-30 13:07 | 31.12864 | 121.80484 | 28 ft | 27 kts | 74° |
| 2026-04-30 13:08 | 31.12927 | 121.80698 | 28 ft | 24 kts | 72° |
| 2026-04-30 13:08 | 31.12975 | 121.80868 | 28 ft | 22 kts | 71° |
| 2026-04-30 13:08 | 31.13023 | 121.81048 | 28 ft | 23 kts | 73° |
| 2026-04-30 13:08 | 31.13078 | 121.81245 | 28 ft | 24 kts | 72° |
| 2026-04-30 13:09 | 31.13130 | 121.81433 | 28 ft | 24 kts | 72° |
| 2026-04-30 13:09 | 31.13178 | 121.81597 | 28 ft | 17 kts | 61° |
| 2026-04-30 13:09 | 31.13292 | 121.81623 | 28 ft | 18 kts | 346° |
| 2026-04-30 13:09 | 31.13419 | 121.81578 | 28 ft | 19 kts | 342° |
| 2026-04-30 13:10 | 31.13548 | 121.81529 | 28 ft | 16 kts | 342° |
| 2026-04-30 13:10 | 31.13604 | 121.81484 | 28 ft | 7 kts | 264° |
| 2026-04-30 13:10 | 31.13597 | 121.81436 | 28 ft | 3 kts | 253° |
| 2026-04-30 13:10 | 31.13593 | 121.81422 | 28 ft | 1 kts | 250° |
| 2026-04-30 13:11 | 31.13590 | 121.81412 | 28 ft | 0 kts | 251° |
| 2026-04-30 13:11 | 31.13590 | 121.81413 | 28 ft | 0 kts | 251° |